Latest Coastal Weather Observations for Cape Otway

IDT60701

Issued at 3:52 am EDT Friday 5 March 2021 (issued every 10 minutes, with the page automatically refreshed every 10 minutes)

About coastal observations | Map of coastal stations | Coastal observations for TAS | Marine services | Other Formats
Station Details ID: 090015 Name: CAPE OTWAY LIGHTHOUSE Lat: -38.86 Lon: 143.51 Height: 82.0 m
Data from the previous 72 hours. | See also: Recent months at Cape Otway
Date/Time
EDT
Wind Sea
Height
m
Swell Vis
km
Cloud Weather Temp
°C
Press
MSL
hPa
Rain since
9am
mm
Dir  Spd
kts
Gust
kts
Height
m
Period
s
Dir
05/03:30am SSW 13 19 - - - - - - - 14.2 1014.8 1.2
05/03:00am SW 17 21 - - - - - - - 14.3 1014.9 1.2
05/02:30am SSW 16 23 - - - - - - - 14.0 1015.1 1.2
05/02:00am SSW 17 23 - - - - - - - 14.2 1015.1 1.2
05/01:30am SSW 19 24 - - - - - - - 14.5 1014.9 1.2
05/01:00am SW 15 23 - - - - - - - 14.5 1014.9 1.2
05/12:30am SSW 17 23 - - - - - - - 14.8 1014.8 1.2
05/12:00am SSW 17 22 - - - - - - - 14.7 1014.7 1.2
 
Date/Time
EDT
Wind Sea
Height
m
Swell Vis
km
Cloud Weather Temp
°C
Press
MSL
hPa
Rain since
9am
mm
Dir  Spd
kts
Gust
kts
Height
m
Period
s
Dir
04/11:30pm SW 20 28 - - - - - - - 14.8 1014.5 1.2
04/11:00pm SSW 16 23 - - - - - - - 15.2 1014.6 1.2
04/10:30pm SW 23 28 - - - - - - - 14.5 1014.7 1.2
04/10:00pm SW 22 30 - - - - - - - 14.9 1014.8 1.2
04/09:30pm SW 23 29 - - - - - - - 15.1 1014.7 1.2
04/09:01pm SW 21 31 - - - - - - - 15.3 1014.4 1.2
04/09:00pm SW 22 31 - - - - - - Recent precip. 15.3 1014.4 1.2
04/08:33pm WSW 19 29 - - - - - - - 15.6 1014.1 1.0
04/08:30pm WSW 19 25 - - - - - - - 15.5 1014.1 0.8
04/08:00pm WSW 19 26 - - - - - - - 15.8 1013.9 0.4
04/07:30pm W 20 26 - - - - - - - 15.7 1013.8 0.4
04/07:04pm W 20 30 - - - - - - - 15.6 1013.9 0.4
04/07:00pm W 19 26 - - - - - - - 15.6 1013.9 0.4
04/06:31pm WSW 18 30 - - - - - - - 15.8 1013.9 0.4
04/06:30pm WSW 18 25 - - - - - - - 15.8 1013.9 0.4
04/06:00pm W 20 29 - - - - - - - 15.8 1013.9 0.4
04/05:57pm W 19 29 - - - - - - - 15.9 1013.9 0.4
04/05:30pm W 19 27 - - - - - - - 15.9 1013.9 0.4
04/05:00pm W 19 26 - - - - - - - 16.1 1014.0 0.4
04/04:30pm W 19 27 - - - - - - - 16.1 1014.3 0.4
04/04:00pm W 19 26 - - - - - - - 15.7 1014.6 0.4
04/03:30pm W 18 27 - - - - - - - 16.2 1014.9 0.4
04/03:00pm W 17 23 - - - - - - - 16.1 1015.3 0.4
04/02:30pm W 19 27 - - - - - - - 16.0 1015.6 0.4
04/02:00pm W 17 23 - - - - - - - 15.6 1015.8 0.4
04/01:30pm W 17 21 - - - - - - - 15.9 1016.0 0.4
04/01:00pm W 18 25 - - - - - - - 15.4 1016.1 0.4
04/12:30pm W 17 24 - - - - - - - 15.5 1016.6 0.4
04/12:07pm W 18 28 - - - - - - - 15.1 1016.7 0.4
04/12:00pm W 19 27 - - - - - - Recent precip. 15.0 1016.8 0.4
04/11:30am W 16 24 - - - - - - - 14.8 1017.0 0.2
04/11:00am WSW 18 25 - - - - - - - 14.5 1017.0 0.0
04/10:30am W 18 24 - - - - - - - 14.7 1017.0 0.0
04/10:00am WSW 17 27 - - - - - - - 14.4 1017.0 0.0
04/09:56am W 17 27 - - - - - - - 14.4 1017.0 0.0
04/09:30am WSW 17 25 - - - - - - - 14.9 1016.9 0.0
04/09:00am W 17 24 - - - - - - - 14.5 1016.7 0.0
04/08:30am W 17 23 - - - - - - - 14.9 1016.7 0.0
04/08:00am W 16 25 - - - - - - - 14.8 1016.5 0.0
04/07:30am W 17 23 - - - - - - - 14.6 1016.5 0.0
04/07:00am W 17 22 - - - - - - - 14.8 1016.3 0.0
04/06:30am W 15 21 - - - - - - - 14.7 1016.2 0.0
04/06:00am W 15 20 - - - - - - - 14.8 1016.4 0.0
04/05:30am W 15 22 - - - - - - - 14.8 1016.4 0.0
04/05:00am WSW 14 19 - - - - - - - 14.7 1016.5 0.0
04/04:30am W 14 22 - - - - - - - 14.7 1016.5 0.0
04/04:00am WSW 15 21 - - - - - - - 14.6 1016.7 0.0
04/03:30am WSW 14 19 - - - - - - - 14.8 1017.0 0.0
04/03:00am W 15 19 - - - - - - - 14.9 1017.3 0.0
04/02:30am WSW 13 19 - - - - - - - 14.9 1017.7 0.0
04/02:00am WSW 13 18 - - - - - - - 14.9 1018.1 0.0
04/01:30am WSW 15 22 - - - - - - - 14.9 1018.4 0.0
04/01:00am WSW 14 21 - - - - - - - 15.0 1018.7 0.0
04/12:30am WSW 13 19 - - - - - - - 14.8 1018.9 0.0
04/12:00am WSW 13 19 - - - - - - - 14.6 1019.2 0.0
 
Date/Time
EDT
Wind Sea
Height
m
Swell Vis
km
Cloud Weather Temp
°C
Press
MSL
hPa
Rain since
9am
mm
Dir  Spd
kts
Gust
kts
Height
m
Period
s
Dir
03/11:30pm SW 14 18 - - - - - - - 14.4 1019.6 0.0
03/11:00pm WSW 13 19 - - - - - - - 14.7 1019.7 0.0
03/10:30pm SW 14 19 - - - - - - - 14.9 1019.9 0.0
03/10:00pm WSW 15 20 - - - - - - - 14.7 1019.9 0.0
03/09:30pm SW 14 19 - - - - - - - 14.5 1019.9 0.0
03/09:00pm WSW 13 19 - - - - - - - 14.5 1019.7 0.0
03/08:30pm SW 13 19 - - - - - - - 14.1 1019.8 0.0
03/08:00pm WSW 11 14 - - - - - - - 14.5 1019.8 0.0
03/07:30pm WSW 11 16 - - - - - - - 14.3 1019.8 0.0
03/07:00pm SW 15 21 - - - - - - - 14.6 1019.8 0.0
03/06:30pm SW 13 20 - - - - - - - 14.7 1019.8 0.0
03/06:00pm WSW 10 14 - - - - - - - 15.4 1019.9 0.0
03/05:30pm WSW 11 14 - - - - - - - 15.3 1019.9 0.0
03/05:00pm WSW 11 16 - - - - - - - 15.4 1019.9 0.0
03/04:30pm WSW 12 17 - - - - - - - 14.6 1020.0 0.0
03/04:00pm WSW 9 13 - - - - - - - 15.8 1020.3 0.0
03/03:30pm SW 14 19 - - - - - - - 14.5 1020.6 0.0
03/03:00pm SW 17 22 - - - - - - - 14.8 1020.5 0.0
03/02:30pm SW 12 15 - - - - - - - 16.1 1020.9 0.0
03/02:00pm SW 11 14 - - - - - - - 15.6 1021.1 0.0
03/01:30pm SW 14 17 - - - - - - - 15.3 1021.2 0.0
03/01:00pm SW 13 17 - - - - - - - 15.5 1021.3 0.0
03/12:30pm SW 12 16 - - - - - - - 15.6 1021.4 0.0
03/12:00pm SW 13 18 - - - - - - - 14.8 1021.3 0.0
03/11:30am SSW 11 15 - - - - - - - 14.2 1021.5 0.0
03/11:00am SW 13 18 - - - - - - - 13.7 1021.6 0.0
03/10:30am SSW 9 13 - - - - - - - 13.8 1021.5 0.0
03/10:00am SSW 10 15 - - - - - - - 13.8 1021.4 0.0
03/09:30am SSW 11 16 - - - - - - - 13.7 1021.3 0.0
03/09:00am SSW 11 16 - - - - - - - 13.7 1020.6 0.0
03/08:30am SSW 10 15 - - - - - - - 13.6 1020.5 0.0
03/08:00am SSW 10 15 - - - - - - - 13.5 1020.4 0.0
03/07:30am SSW 12 18 - - - - - - - 13.3 1020.1 0.0
03/07:00am SSW 9 14 - - - - - - - 13.5 1019.9 0.0
03/06:30am SW 8 11 - - - - - - - 13.5 1019.7 0.0
03/06:00am SSW 11 17 - - - - - - - 13.6 1019.3 0.0
03/05:30am SSW 8 11 - - - - - - - 13.4 1019.1 0.0
03/05:00am SW 9 12 - - - - - - - 13.2 1018.8 0.0
03/04:30am SW 9 13 - - - - - - - 13.3 1018.8 0.0
03/04:00am SW 6 9 - - - - - - - 13.6 1019.2 0.0
03/03:30am SSW 7 13 - - - - - - - 13.4 1019.2 0.0
03/03:00am SW 7 10 - - - - - - - 13.5 1019.1 0.0
03/02:30am SSW 10 14 - - - - - - - 13.6 1019.8 0.0
03/02:00am SW 8 11 - - - - - - - 13.8 1020.0 0.0
03/01:30am SSW 10 14 - - - - - - - 13.6 1020.2 0.0
03/01:00am SSW 10 15 - - - - - - - 13.6 1020.4 0.0
03/12:30am SSW 10 15 - - - - - - - 13.4 1020.5 0.0
03/12:00am SSW 10 15 - - - - - - - 13.5 1020.2 0.0
 
Date/Time
EDT
Wind Sea
Height
m
Swell Vis
km
Cloud Weather Temp
°C
Press
MSL
hPa
Rain since
9am
mm
Dir  Spd
kts
Gust
kts
Height
m
Period
s
Dir
02/11:30pm SSW 7 10 - - - - - - - 13.6 1020.5 0.0
02/11:00pm SSW 10 15 - - - - - - - 13.8 1020.7 0.0
02/10:30pm SSW 10 15 - - - - - - - 13.7 1020.7 0.0
02/10:00pm SSW 13 18 - - - - - - - 13.7 1020.6 0.0
02/09:30pm SSW 10 15 - - - - - - - 13.9 1020.7 0.0
02/09:00pm SSW 12 17 - - - - - - - 13.9 1020.5 0.0
02/08:30pm SSW 11 18 - - - - - - - 13.9 1020.3 0.0
02/08:00pm SSW 13 20 - - - - - - - 13.7 1020.1 0.0
02/07:30pm SSW 10 14 - - - - - - - 13.9 1020.0 0.0
02/07:00pm SSW 12 18 - - - - - - - 13.8 1019.9 0.0
02/06:30pm SSW 12 17 - - - - - - - 14.5 1019.6 0.0
02/06:00pm SSW 12 16 - - - - - - - 15.2 1019.3 0.0
02/05:30pm SSW 12 16 - - - - - - - 14.3 1019.6 0.0
02/05:00pm SSW 8 13 - - - - - - - 15.1 1019.5 0.0
02/04:30pm SSW 11 16 - - - - - - - 14.3 1019.3 0.0
02/04:00pm SSW 13 16 - - - - - - - 14.6 1019.6 0.0
02/03:30pm SSW 10 13 - - - - - - - 15.8 1019.6 0.0
02/03:00pm SSW 9 15 - - - - - - - 14.9 1019.8 0.0
02/02:30pm SSW 9 13 - - - - - - - 14.8 1020.1 0.0
02/02:00pm SSW 11 17 - - - - - - - 14.2 1020.1 0.0
02/01:30pm SW 11 16 - - - - - - - 14.5 1020.3 0.0
02/01:00pm SSW 14 19 - - - - - - - 13.6 1020.3 0.0
02/12:30pm SSW 14 19 - - - - - - - 14.8 1020.2 0.0
02/12:00pm SSW 13 19 - - - - - - - 14.5 1020.0 0.0
02/11:30am SSW 11 18 - - - - - - - 14.0 1020.1 0.0
02/11:00am SSW 11 16 - - - - - - - 14.1 1019.7 0.0
02/10:30am SSW 17 23 - - - - - - - 13.4 1019.5 0.0
02/10:00am SSW 13 22 - - - - - - - 13.3 1019.3 0.0
02/09:30am SSW 13 17 - - - - - - - 12.7 1019.5 0.0
02/09:12am SSW 15 28 - - - - - - - 12.7 1019.0 0.0
02/09:00am SSW 17 25 - - - - - - - 13.4 1019.0 0.6
02/08:30am SSW 17 25 - - - - - - - 13.1 1018.8 0.6
02/08:00am SSW 17 23 - - - - - - - 13.6 1018.4 0.6
02/07:30am SSW 17 26 - - - - - - - 13.1 1018.2 0.6
02/07:27am SSW 16 26 - - - - - - - 13.1 1018.2 0.6
02/07:00am SSW 20 25 - - - - - - - 13.0 1017.8 0.6
02/06:30am SW 14 21 - - - - - - - 13.0 1017.7 0.6
02/06:00am SSW 14 20 - - - - - - - 13.3 1017.6 0.6
02/05:30am SSW 16 22 - - - - - - - 13.2 1017.6 0.6
02/05:11am SSW 18 28 - - - - - - - 13.2 1017.4 0.6
02/05:00am SSW 16 24 - - - - - - - 13.2 1017.4 0.6
02/04:30am SSW 17 24 - - - - - - - 13.4 1017.5 0.6
02/04:00am SSW 13 19 - - - - - - - 13.2 1017.6 0.6

Other formats

Comma delimited format used in spreadsheet applications
http://www.bom.gov.au/fwo/IDT60701/IDT60701.94842.axf

JavaScript Object Notation format (JSON) in row-major order
http://www.bom.gov.au/fwo/IDT60701/IDT60701.94842.json

Data quality

Most of these data are generated automatically and are frequently updated. Quality checks on data are not normally performed. It is possible for incorrect values to appear. Refer to information at About Latest Weather Observations and please check the disclaimer before using these data.